Time;durP1;ratioP1;P1;durP2;ratioP2;P2;SDS_P1;SDS_P2;PMS_P1;PMS_P2;Temp;Humidity;BMP_temperature;BMP_pressure;BME280_temperature;BME280_humidity;BME280_pressure;Samples;Min_cycle;Max_cycle;Signal;HPM_P1;HPM_P2
2022/04/29 00:01:01;;;;;;;;;23.75;21.75;;;;;18.16;58.54;102378.84;5079369;27;45390;-78
2022/04/29 00:03:27;;;;;;;;;24.00;21.00;;;;;18.04;59.06;102372.28;5079372;27;45445;-78
2022/04/29 00:05:55;;;;;;;;;25.75;22.75;;;;;18.07;59.53;102364.56;5079462;27;45359;-78
2022/04/29 00:08:21;;;;;;;;;20.25;19.00;;;;;18.13;59.54;102376.13;5073661;28;46908;-78
2022/04/29 00:10:46;;;;;;;;;23.00;22.00;;;;;18.10;59.67;102363.78;5074901;28;45948;-78
2022/04/29 00:13:15;;;;;;;;;26.25;23.75;;;;;18.06;59.29;102356.66;5059071;28;45301;-78
2022/04/29 00:15:41;;;;;;;;;28.50;25.75;;;;;18.00;59.71;102357.31;5058906;28;45358;-78
2022/04/29 00:18:07;;;;;;;;;24.75;24.50;;;;;17.95;60.23;102357.09;5058920;27;45449;-77
2022/04/29 00:20:33;;;;;;;;;27.50;23.50;;;;;17.89;60.20;102353.34;5067205;28;45279;-77
2022/04/29 00:22:58;;;;;;;;;22.75;21.75;;;;;17.86;60.62;102355.81;5070681;28;45337;-78
2022/04/29 00:25:24;;;;;;;;;23.00;19.25;;;;;17.82;60.23;102343.44;5080018;27;45630;-77
2022/04/29 00:27:49;;;;;;;;;30.25;22.25;;;;;17.75;61.68;102334.44;5079389;27;45369;-76
2022/04/29 00:30:15;;;;;;;;;27.00;26.75;;;;;17.80;60.93;102348.59;5078434;27;45330;-77
2022/04/29 00:32:41;;;;;;;;;27.00;24.75;;;;;17.75;60.54;102345.81;5078608;27;45349;-77
2022/04/29 00:35:08;;;;;;;;;28.25;23.00;;;;;17.75;61.05;102344.94;5078725;27;45494;-77
2022/04/29 00:37:44;;;;;;;;;30.25;26.25;;;;;17.72;61.96;102347.41;5078371;27;46292;-77
2022/04/29 00:40:15;;;;;;;;;25.75;23.50;;;;;17.67;61.86;102335.84;5078282;28;45378;-76
2022/04/29 00:42:40;;;;;;;;;27.75;23.00;;;;;17.69;61.58;102340.34;5078102;27;45223;-77
2022/04/29 00:45:06;;;;;;;;;31.25;28.75;;;;;17.57;61.80;102322.38;5078453;27;45180;-77
2022/04/29 00:47:32;;;;;;;;;25.75;24.50;;;;;17.60;61.31;102334.75;5077594;27;46182;-76
2022/04/29 00:49:58;;;;;;;;;30.25;26.25;;;;;17.59;61.46;102330.31;5078815;27;45847;-77
2022/04/29 00:52:24;;;;;;;;;30.75;25.50;;;;;17.56;60.84;102335.44;5078485;27;45326;-77
2022/04/29 00:55:03;;;;;;;;;33.00;28.25;;;;;17.51;61.60;102331.72;5079179;27;45501;-77
2022/04/29 00:57:43;;;;;;;;;26.25;22.50;;;;;17.48;61.78;102324.63;5078150;27;45460;-78
2022/04/29 01:00:11;;;;;;;;;25.25;22.00;;;;;17.46;61.86;102321.06;5072658;27;45873;-77
2022/04/29 01:02:46;;;;;;;;;23.00;20.00;;;;;17.43;61.63;102316.59;5058097;27;45410;-78
2022/04/29 01:05:17;;;;;;;;;27.75;23.75;;;;;17.41;61.70;102314.75;5062094;28;45863;-77
2022/04/29 01:07:44;;;;;;;;;31.00;24.50;;;;;17.35;62.23;102309.25;5066347;28;45291;-77
2022/04/29 01:10:12;;;;;;;;;28.25;26.00;;;;;17.37;62.26;102312.84;5060696;28;45722;-78
2022/04/29 01:12:44;;;;;;;;;31.00;26.00;;;;;17.35;62.39;102298.78;5058828;28;45367;-78
2022/04/29 01:15:15;;;;;;;;;26.75;25.00;;;;;17.34;61.76;102297.91;5068538;28;45441;-78
2022/04/29 01:17:43;;;;;;;;;29.00;25.75;;;;;17.38;62.20;102301.53;5077264;27;45507;-77
2022/04/29 01:20:12;;;;;;;;;24.75;24.00;;;;;17.39;61.89;102295.47;5077512;27;45437;-78
2022/04/29 01:22:37;;;;;;;;;24.00;24.00;;;;;17.27;62.00;102281.06;5079047;27;45392;-79
2022/04/29 01:25:03;;;;;;;;;22.50;20.00;;;;;17.35;61.98;102294.47;5078543;27;45318;-79
2022/04/29 01:27:30;;;;;;;;;30.50;26.25;;;;;17.35;61.93;102304.94;5076694;28;45414;-79
2022/04/29 01:30:13;;;;;;;;;24.25;24.00;;;;;17.29;61.48;102300.34;5077897;27;45779;-78
2022/04/29 01:32:40;;;;;;;;;31.50;30.25;;;;;17.33;62.41;102307.47;5077893;27;45412;-78
2022/04/29 01:35:08;;;;;;;;;31.75;27.25;;;;;17.27;62.61;102306.34;5077818;27;45624;-78
2022/04/29 01:37:34;;;;;;;;;32.50;25.50;;;;;17.26;61.33;102309.78;5077484;27;45471;-78
2022/04/29 01:40:00;;;;;;;;;29.50;25.00;;;;;17.24;62.76;102300.97;5078054;28;45338;-78
2022/04/29 01:42:26;;;;;;;;;27.75;25.00;;;;;17.24;61.83;102309.72;5077391;27;45313;-79
2022/04/29 01:44:52;;;;;;;;;29.75;26.25;;;;;17.17;62.80;102295.47;5077936;27;45455;-78
2022/04/29 01:47:18;;;;;;;;;33.75;27.75;;;;;17.18;62.38;102307.72;5077315;27;45571;-79
2022/04/29 01:49:44;;;;;;;;;28.00;24.25;;;;;17.16;61.61;102296.34;5076437;28;45331;-79
2022/04/29 01:52:09;;;;;;;;;32.50;30.00;;;;;17.16;62.25;102303.28;5079810;27;45273;-77
2022/04/29 01:54:36;;;;;;;;;32.25;26.75;;;;;17.11;61.66;102304.81;5084222;28;45346;-76
2022/04/29 01:57:02;;;;;;;;;25.75;23.75;;;;;17.11;61.68;102315.28;5079224;27;45927;-77
2022/04/29 01:59:30;;;;;;;;;30.00;28.25;;;;;17.07;61.82;102302.88;5078780;27;45242;-77
2022/04/29 02:01:57;;;;;;;;;36.75;27.50;;;;;17.07;62.49;102305.50;5077520;28;45373;-77
2022/04/29 02:04:24;;;;;;;;;28.00;24.25;;;;;17.12;62.54;102311.81;5076893;27;45386;-78
2022/04/29 02:06:50;;;;;;;;;33.25;27.75;;;;;17.09;62.16;102315.19;5077094;27;46113;-78
2022/04/29 02:09:16;;;;;;;;;29.50;25.75;;;;;17.07;61.64;102313.34;5076990;27;45421;-79
2022/04/29 02:12:03;;;;;;;;;27.25;25.25;;;;;17.05;61.59;102310.69;5077513;27;45208;-78
2022/04/29 02:14:28;;;;;;;;;30.00;26.00;;;;;17.04;62.32;102300.13;5077551;28;45269;-78
2022/04/29 02:16:55;;;;;;;;;36.00;28.75;;;;;17.07;62.02;102306.38;5075604;27;45568;-77
2022/04/29 02:19:22;;;;;;;;;27.50;22.25;;;;;17.05;62.70;102308.06;5076786;27;45822;-78
2022/04/29 02:21:48;;;;;;;;;32.00;28.25;;;;;17.06;62.85;102316.81;5077858;27;45385;-77
2022/04/29 02:24:14;;;;;;;;;34.50;26.75;;;;;16.86;62.76;102283.69;5078791;28;45551;-78
2022/04/29 02:26:40;;;;;;;;;25.50;22.25;;;;;16.92;62.61;102296.13;5092987;27;45523;-78
2022/04/29 02:29:07;;;;;;;;;29.75;25.75;;;;;17.07;61.58;102324.69;5077638;27;45180;-77
2022/04/29 02:31:33;;;;;;;;;33.50;31.00;;;;;16.88;62.42;102299.47;5077472;28;45304;-78
2022/04/29 02:33:58;;;;;;;;;30.00;27.50;;;;;17.00;62.07;102312.19;5077333;27;45564;-78
2022/04/29 02:36:24;;;;;;;;;32.75;25.75;;;;;17.02;62.45;102321.00;5078520;28;45457;-77
2022/04/29 02:38:50;;;;;;;;;26.50;24.75;;;;;17.00;62.76;102309.59;5085022;27;45362;-78
2022/04/29 02:41:15;;;;;;;;;28.00;27.00;;;;;17.00;62.47;102309.59;5082726;27;45265;-78
2022/04/29 02:43:41;;;;;;;;;29.25;24.75;;;;;17.00;62.32;102310.50;5078507;27;45314;-77
2022/04/29 02:46:07;;;;;;;;;31.00;26.25;;;;;16.96;61.77;102315.50;5076818;27;46270;-77
2022/04/29 02:48:33;;;;;;;;;29.50;26.25;;;;;16.89;62.59;102322.19;5076615;27;45785;-77
2022/04/29 02:50:59;;;;;;;;;28.00;23.25;;;;;16.87;62.91;102311.63;5077111;27;45295;-77
2022/04/29 02:53:24;;;;;;;;;33.75;28.50;;;;;16.91;62.84;102323.13;5076113;28;45311;-77
2022/04/29 02:55:50;;;;;;;;;31.50;24.75;;;;;16.81;62.15;102308.78;5076415;27;45956;-78
2022/04/29 02:58:16;;;;;;;;;30.25;25.25;;;;;16.79;62.83;102302.56;5076001;27;45271;-77
2022/04/29 03:00:41;;;;;;;;;35.25;28.00;;;;;16.90;62.67;102317.84;5075324;28;45352;-78
2022/04/29 03:03:07;;;;;;;;;29.25;26.00;;;;;16.88;62.26;102317.78;5076634;27;45454;-80
2022/04/29 03:05:33;;;;;;;;;27.50;26.75;;;;;16.81;62.59;102311.38;5076491;27;46128;-78
2022/04/29 03:07:58;;;;;;;;;29.25;26.00;;;;;16.85;62.95;102317.63;5076804;27;45468;-78
2022/04/29 03:10:24;;;;;;;;;36.50;30.75;;;;;16.82;62.98;102317.50;5077394;28;45382;-78
2022/04/29 03:12:49;;;;;;;;;30.00;28.25;;;;;16.77;62.30;102313.81;5080081;28;45554;-78
2022/04/29 03:15:18;;;;;;;;;28.25;26.00;;;;;16.73;63.13;102324.94;5079554;27;46246;-78
2022/04/29 03:20:33;;;;;;;;;33.00;27.00;;;;;16.65;62.84;102306.28;5080567;27;45310;-77
2022/04/29 03:22:59;;;;;;;;;33.00;26.75;;;;;16.64;62.88;102318.50;5086780;27;45437;-79
2022/04/29 03:25:24;;;;;;;;;32.00;25.75;;;;;16.53;62.95;102294.47;5087049;27;45574;-80
2022/04/29 03:27:50;;;;;;;;;32.25;28.50;;;;;16.53;63.10;102302.31;5085447;27;45541;-79
2022/04/29 03:30:16;;;;;;;;;39.00;30.00;;;;;16.51;63.02;102305.69;5082603;27;45322;-79
2022/04/29 03:32:50;;;;;;;;;32.50;26.50;;;;;16.42;63.54;102289.59;5081616;27;45347;-79
2022/04/29 03:35:16;;;;;;;;;33.75;29.75;;;;;16.48;63.30;102297.72;5080201;27;45443;-79
2022/04/29 03:37:41;;;;;;;;;31.50;26.75;;;;;16.45;63.30;102292.38;5079804;27;45389;-79
2022/04/29 03:40:08;;;;;;;;;41.50;30.00;;;;;16.43;63.65;102286.16;5079888;28;45369;-79
2022/04/29 03:42:33;;;;;;;;;33.50;29.25;;;;;16.44;63.41;102290.56;5080977;28;45562;-79
2022/04/29 03:44:59;;;;;;;;;46.75;33.00;;;;;16.48;63.22;102296.00;5097993;27;46862;-80
2022/04/29 03:47:25;;;;;;;;;31.25;29.25;;;;;16.31;63.58;102253.44;5080753;27;45255;-79
2022/04/29 03:49:51;;;;;;;;;34.75;29.00;;;;;16.35;63.55;102271.06;5081057;27;45369;-79
2022/04/29 03:52:16;;;;;;;;;34.25;25.75;;;;;16.38;63.47;102279.00;5080554;27;45488;-79
2022/04/29 03:54:42;;;;;;;;;26.00;25.75;;;;;16.33;63.26;102254.41;5079249;27;45337;-79
2022/04/29 03:57:08;;;;;;;;;29.75;26.75;;;;;16.42;63.16;102266.09;5079317;27;45339;-79
2022/04/29 03:59:34;;;;;;;;;27.50;26.50;;;;;16.33;62.86;102251.78;5079713;27;45534;-79
2022/04/29 04:02:02;;;;;;;;;30.25;28.25;;;;;16.43;63.99;102280.94;5080310;27;45492;-79
2022/04/29 04:04:28;;;;;;;;;27.75;25.75;;;;;16.43;64.19;102281.81;5080316;27;45363;-79
2022/04/29 04:07:00;;;;;;;;;33.50;29.25;;;;;16.35;63.63;102264.91;5077822;27;45189;-78
2022/04/29 04:09:26;;;;;;;;;32.75;28.00;;;;;16.35;63.77;102259.69;5080278;27;45437;-79
2022/04/29 04:11:52;;;;;;;;;31.75;27.50;;;;;16.29;64.38;102252.47;5081468;28;45330;-78
2022/04/29 04:14:18;;;;;;;;;33.25;29.75;;;;;16.35;64.09;102273.66;5083186;28;45516;-79
2022/04/29 04:16:44;;;;;;;;;34.25;30.00;;;;;16.29;64.48;102267.25;5082536;27;45145;-78
2022/04/29 04:19:10;;;;;;;;;28.75;28.75;;;;;16.24;64.28;102265.31;5080259;27;45288;-77
2022/04/29 04:21:36;;;;;;;;;32.75;29.00;;;;;16.34;65.05;102279.72;5082439;27;45605;-79
2022/04/29 04:24:01;;;;;;;;;31.75;28.50;;;;;16.37;65.05;102277.22;5079922;28;45257;-78
2022/04/29 04:26:27;;;;;;;;;30.75;28.00;;;;;16.44;64.25;102278.38;5079634;27;45225;-80
2022/04/29 04:28:53;;;;;;;;;30.00;26.00;;;;;16.37;63.99;102264.16;5079039;27;45412;-79
2022/04/29 04:31:21;;;;;;;;;40.25;32.50;;;;;16.32;62.97;102244.78;5078902;28;45374;-78
2022/04/29 04:33:53;;;;;;;;;32.25;29.25;;;;;16.37;64.58;102274.59;5079001;28;45756;-79
2022/04/29 04:36:19;;;;;;;;;28.50;28.00;;;;;16.41;63.94;102273.03;5078146;27;45471;-79
2022/04/29 04:38:47;;;;;;;;;33.50;31.75;;;;;16.38;63.81;102259.81;5078846;27;45301;-76
2022/04/29 04:41:15;;;;;;;;;26.75;23.50;;;;;16.40;64.14;102269.53;5078805;27;45518;-77
2022/04/29 04:43:42;;;;;;;;;34.75;29.75;;;;;16.43;63.93;102273.97;5078365;27;45556;-78
2022/04/29 04:46:09;;;;;;;;;36.25;30.50;;;;;16.49;63.79;102273.34;5077999;27;45826;-78
2022/04/29 04:48:35;;;;;;;;;33.25;28.50;;;;;16.44;63.57;102269.66;5078448;27;45376;-78
2022/04/29 04:51:03;;;;;;;;;31.00;26.50;;;;;16.43;63.85;102281.81;5079504;28;45561;-78
2022/04/29 04:53:29;;;;;;;;;29.00;26.00;;;;;16.45;63.49;102274.94;5081916;27;45372;-79
2022/04/29 04:55:55;;;;;;;;;30.00;26.25;;;;;16.47;62.94;102281.16;5086514;27;45267;-77
2022/04/29 04:58:21;;;;;;;;;25.25;24.00;;;;;16.48;63.35;102279.41;5082779;27;45588;-77
2022/04/29 05:00:46;;;;;;;;;31.00;24.75;;;;;16.50;63.23;102280.38;5080697;28;45361;-80
2022/04/29 05:03:12;;;;;;;;;27.50;24.00;;;;;16.44;63.47;102272.28;5078683;28;45338;-80
2022/04/29 05:05:39;;;;;;;;;30.75;25.00;;;;;16.45;62.12;102274.94;5076852;28;45286;-80
2022/04/29 05:08:05;;;;;;;;;35.25;30.75;;;;;16.47;63.96;102275.00;5077343;27;45467;-80
2022/04/29 05:10:30;;;;;;;;;32.75;28.75;;;;;16.53;64.08;102284.00;5078782;27;45259;-77
2022/04/29 05:12:56;;;;;;;;;33.25;27.50;;;;;16.51;63.32;102282.16;5077625;27;46163;-79
2022/04/29 05:15:22;;;;;;;;;33.75;26.00;;;;;16.54;63.10;102283.19;5077242;28;45488;-80
2022/04/29 05:17:48;;;;;;;;;29.00;25.75;;;;;16.56;62.59;102285.91;5076343;27;45427;-80
2022/04/29 05:20:15;;;;;;;;;30.75;27.25;;;;;16.55;61.83;102294.56;5076615;27;45574;-79
2022/04/29 05:22:42;;;;;;;;;33.25;28.75;;;;;16.51;63.03;102283.06;5077416;27;45664;-80
2022/04/29 05:25:08;;;;;;;;;30.75;24.50;;;;;16.52;62.79;102287.44;5077827;27;45703;-77
2022/04/29 05:27:33;;;;;;;;;27.00;24.75;;;;;16.50;62.59;102299.59;5077688;27;45385;-77
2022/04/29 05:29:59;;;;;;;;;30.00;27.50;;;;;16.47;61.96;102301.16;5078699;27;45615;-79
2022/04/29 05:32:25;;;;;;;;;29.50;27.75;;;;;16.50;63.19;102304.81;5077809;27;45284;-79
2022/04/29 05:34:52;;;;;;;;;32.50;27.50;;;;;16.40;62.38;102297.38;5077753;27;45357;-78
2022/04/29 05:37:19;;;;;;;;;31.50;29.75;;;;;16.40;61.94;102302.63;5077875;27;45326;-79
2022/04/29 05:42:29;;;;;;;;;26.75;25.00;;;;;16.40;63.95;102315.69;5083834;28;45192;-77
2022/04/29 05:44:55;;;;;;;;;34.50;27.50;;;;;16.37;63.57;102305.09;5078223;27;45357;-79
2022/04/29 05:47:21;;;;;;;;;34.25;29.00;;;;;16.37;62.56;102305.97;5077631;27;45419;-79
2022/04/29 05:49:47;;;;;;;;;31.50;26.75;;;;;16.38;63.64;102312.97;5075957;27;45496;-79
2022/04/29 05:52:12;;;;;;;;;33.00;31.25;;;;;16.44;63.35;102319.34;5075582;27;46006;-79
2022/04/29 05:54:39;;;;;;;;;30.25;26.25;;;;;16.43;62.44;102318.41;5077332;27;45382;-79
2022/04/29 05:57:05;;;;;;;;;32.25;28.50;;;;;16.37;63.52;102313.81;5076088;28;45259;-78
2022/04/29 05:59:31;;;;;;;;;32.75;28.50;;;;;16.48;62.85;102324.75;5076961;27;45660;-77
2022/04/29 06:01:58;;;;;;;;;34.00;28.75;;;;;16.44;62.98;102330.66;5074950;27;47582;-77
2022/04/29 06:04:23;;;;;;;;;36.25;32.50;;;;;16.42;62.36;102331.44;5077479;27;45948;-77
2022/04/29 06:06:49;;;;;;;;;28.00;27.25;;;;;16.36;63.34;102319.84;5076682;27;45485;-87
2022/04/29 06:09:15;;;;;;;;;34.00;30.75;;;;;16.25;63.30;102314.16;5078695;27;45295;-86
2022/04/29 06:11:41;;;;;;;;;31.50;29.25;;;;;16.40;63.38;102339.22;5076224;28;45448;-85
2022/04/29 06:14:07;;;;;;;;;32.00;29.00;;;;;16.22;63.10;102318.34;5078643;28;45477;-83
2022/04/29 06:16:33;;;;;;;;;32.25;28.25;;;;;16.33;63.44;102352.81;5076332;27;45601;-81
2022/04/29 06:18:59;;;;;;;;;31.00;25.25;;;;;16.29;63.98;102340.44;5076797;27;45596;-76
2022/04/29 06:21:25;;;;;;;;;39.50;32.75;;;;;16.29;63.90;102341.31;5090467;27;45691;-76
2022/04/29 06:23:50;;;;;;;;;34.25;31.25;;;;;16.23;64.45;102336.72;5098991;27;45321;-73
2022/04/29 06:26:16;;;;;;;;;32.75;28.00;;;;;16.18;63.98;102326.88;5084108;27;46809;-77
2022/04/29 06:28:42;;;;;;;;;33.00;29.75;;;;;16.24;63.92;102337.63;5081335;27;45435;-78
2022/04/29 06:31:10;;;;;;;;;29.75;29.25;;;;;16.23;64.54;102354.13;5082279;27;45328;-79
2022/04/29 06:33:38;;;;;;;;;35.00;31.00;;;;;16.24;64.76;102342.84;5082201;27;45493;-78
2022/04/29 06:36:05;;;;;;;;;24.25;21.25;;;;;16.29;63.83;102349.16;5083242;27;45475;-80
2022/04/29 06:38:31;;;;;;;;;43.25;34.00;;;;;16.21;64.39;102327.03;5083031;27;45457;-79
2022/04/29 06:41:00;;;;;;;;;40.25;33.50;;;;;16.28;63.78;102331.69;5095203;27;45487;-77
2022/04/29 06:43:28;;;;;;;;;40.75;33.50;;;;;16.35;64.20;102338.09;5095809;27;45346;-76
2022/04/29 06:45:53;;;;;;;;;31.00;28.50;;;;;16.35;64.00;102335.47;5091599;27;46026;-77
2022/04/29 06:48:19;;;;;;;;;35.25;29.25;;;;;16.36;64.56;102327.69;5075760;27;45490;-81
2022/04/29 06:50:45;;;;;;;;;34.50;29.25;;;;;16.38;65.21;102333.91;5077637;27;46084;-79
2022/04/29 06:53:10;;;;;;;;;35.50;29.25;;;;;16.35;64.48;102332.88;5077367;27;45362;-81
2022/04/29 06:55:39;;;;;;;;;31.25;29.00;;;;;16.31;64.64;102334.47;5076125;27;45593;-79
2022/04/29 06:58:06;;;;;;;;;35.25;32.75;;;;;16.43;64.90;102351.53;5081441;27;45536;-77
2022/04/29 07:00:42;;;;;;;;;31.75;29.25;;;;;16.33;64.98;102343.25;5077290;27;47656;-75
2022/04/29 07:03:10;;;;;;;;;32.25;29.75;;;;;16.27;64.12;102348.19;5081161;27;45769;-81
2022/04/29 07:05:41;;;;;;;;;42.00;34.50;;;;;16.33;64.37;102371.09;5080999;27;45502;-83
2022/04/29 07:08:09;;;;;;;;;35.00;33.25;;;;;16.31;65.14;102371.03;5083597;27;45509;-81
2022/04/29 07:10:36;;;;;;;;;33.25;32.50;;;;;16.18;65.03;102338.22;5078194;27;47173;-81
2022/04/29 07:13:07;;;;;;;;;37.50;32.50;;;;;16.32;66.17;102369.31;5081801;27;45441;-85
2022/04/29 07:15:33;;;;;;;;;44.00;33.50;;;;;16.22;66.44;102365.41;5086322;27;45362;-83
2022/04/29 07:17:58;;;;;;;;;38.25;33.50;;;;;16.27;66.46;102358.66;5088044;27;45672;-80
2022/04/29 07:20:26;;;;;;;;;41.50;32.25;;;;;16.27;66.20;102350.81;5080085;27;46620;-83
2022/04/29 07:22:51;;;;;;;;;38.00;33.00;;;;;16.42;66.63;102365.41;5078062;28;45761;-80
2022/04/29 07:25:19;;;;;;;;;40.50;34.25;;;;;16.46;66.81;102355.16;5075813;28;45409;-78
2022/04/29 07:27:45;;;;;;;;;42.50;35.00;;;;;16.30;66.85;102350.06;5074316;27;45507;-77
2022/04/29 07:30:11;;;;;;;;;42.00;35.75;;;;;16.26;67.04;102356.84;5065188;27;45462;-77
2022/04/29 07:32:37;;;;;;;;;39.25;35.25;;;;;16.19;67.78;102354.78;5092654;27;45805;-79
2022/04/29 07:43:16;;;;;;;;;46.50;35.75;;;;;16.49;67.87;102370.09;5068849;28;45277;-78
2022/04/29 07:45:42;;;;;;;;;38.75;32.25;;;;;16.58;68.33;102367.88;5071496;28;45239;-79
2022/04/29 07:48:09;;;;;;;;;34.75;32.50;;;;;16.64;66.03;102368.19;5076037;27;45422;-78
2022/04/29 07:50:35;;;;;;;;;47.25;35.75;;;;;16.60;66.82;102360.13;5084245;27;45445;-78
2022/04/29 07:53:03;;;;;;;;;49.00;37.75;;;;;16.50;66.96;102354.50;5086066;27;45452;-78
2022/04/29 07:55:29;;;;;;;;;39.50;35.25;;;;;16.64;66.92;102373.41;5079802;27;45291;-78
2022/04/29 07:57:56;;;;;;;;;39.00;35.25;;;;;16.66;67.26;102366.53;5089083;27;45182;-77
2022/04/29 08:00:25;;;;;;;;;37.25;34.00;;;;;16.70;66.70;102357.09;5070813;27;46030;-78
2022/04/29 08:02:51;;;;;;;;;39.25;35.75;;;;;16.84;67.47;102376.00;5081066;27;45831;-77
2022/04/29 08:05:18;;;;;;;;;45.50;36.00;;;;;16.94;66.56;102377.34;5080090;27;45873;-79
2022/04/29 08:07:44;;;;;;;;;40.25;34.00;;;;;16.93;65.78;102358.09;5076848;27;45509;-77
2022/04/29 08:10:09;;;;;;;;;53.75;39.00;;;;;16.99;65.36;102370.59;5083870;27;46063;-78
2022/04/29 08:12:37;;;;;;;;;44.00;37.00;;;;;17.01;65.99;102369.81;5079610;27;45317;-79
2022/04/29 08:15:04;;;;;;;;;49.50;37.25;;;;;17.07;65.82;102373.53;5079440;27;45221;-78
2022/04/29 08:17:29;;;;;;;;;38.25;31.25;;;;;17.02;65.97;102370.72;5079125;27;45397;-77
2022/04/29 08:19:55;;;;;;;;;50.50;39.25;;;;;16.93;66.23;102362.44;5078065;27;45875;-78
2022/04/29 08:22:21;;;;;;;;;49.50;37.75;;;;;17.02;65.98;102383.81;5081383;27;45440;-79
2022/04/29 08:24:47;;;;;;;;;43.00;34.50;;;;;16.95;66.43;102373.91;5068911;27;45461;-78
2022/04/29 08:27:14;;;;;;;;;37.25;34.50;;;;;17.02;67.48;102368.13;5080049;27;45467;-79
2022/04/29 08:29:39;;;;;;;;;46.25;40.75;;;;;17.02;66.93;102374.22;5085126;27;45438;-79
2022/04/29 08:32:06;;;;;;;;;44.75;35.50;;;;;16.89;67.38;102355.28;5077834;27;45554;-77
2022/04/29 08:34:35;;;;;;;;;50.75;39.00;;;;;16.94;67.08;102365.16;5074461;27;45368;-80
2022/04/29 08:37:22;;;;;;;;;48.50;36.25;;;;;17.10;66.81;102378.91;5081955;27;45572;-77
2022/04/29 08:39:48;;;;;;;;;46.75;40.25;;;;;16.75;66.77;102325.91;5102446;27;48157;-77
2022/04/29 08:42:19;;;;;;;;;54.75;41.00;;;;;16.96;67.00;102362.59;5097568;27;45428;-80
2022/04/29 08:44:46;;;;;;;;;45.50;36.25;;;;;17.12;67.97;102375.53;5100630;27;45475;-80
2022/04/29 08:47:13;;;;;;;;;46.25;36.25;;;;;17.05;67.56;102342.09;5082060;27;45560;-80
2022/04/29 08:49:40;;;;;;;;;42.00;34.00;;;;;17.33;66.92;102364.19;5063174;27;47263;-79
2022/04/29 08:52:07;;;;;;;;;46.75;38.25;;;;;17.44;65.87;102383.84;5078564;27;45838;-81
2022/04/29 09:00:11;;;;;;;;;43.75;35.50;;;;;17.49;64.00;102300.25;5069431;27;45459;-80
2022/04/29 09:02:39;;;;;;;;;47.25;39.75;;;;;17.98;64.61;102365.94;5093153;27;45835;-77
2022/04/29 09:05:09;;;;;;;;;44.00;36.50;;;;;18.02;63.49;102359.97;5087425;27;45499;-77
2022/04/29 09:08:01;;;;;;;;;41.00;34.25;;;;;18.02;63.70;102349.47;5088809;27;46481;-78
2022/04/29 09:10:36;;;;;;;;;47.00;38.25;;;;;18.22;62.87;102361.63;5060961;27;46709;-77
2022/04/29 09:13:31;;;;;;;;;41.75;33.25;;;;;18.35;63.31;102369.97;5076389;27;45973;-77
2022/04/29 09:16:15;;;;;;;;;42.50;37.25;;;;;18.37;62.80;102349.94;5081359;27;45446;-78
2022/04/29 09:18:43;;;;;;;;;47.50;37.75;;;;;18.37;62.84;102328.97;5077221;27;45579;-76
2022/04/29 09:21:16;;;;;;;;;42.25;36.25;;;;;18.58;61.47;102362.94;5076783;27;45792;-76
2022/04/29 09:23:47;;;;;;;;;44.50;37.00;;;;;18.49;61.97;102337.28;5085193;27;45425;-78
2022/04/29 09:26:21;;;;;;;;;41.00;34.00;;;;;18.55;61.15;102358.47;5080355;27;45415;-76
2022/04/29 09:28:49;;;;;;;;;38.50;32.00;;;;;18.58;61.21;102354.19;5086615;27;45595;-77
2022/04/29 09:31:15;;;;;;;;;41.50;35.25;;;;;18.47;61.24;102317.97;5094722;27;45416;-76
2022/04/29 09:33:55;;;;;;;;;40.75;32.75;;;;;18.58;61.99;102335.84;5098169;27;45447;-77
2022/04/29 09:36:24;;;;;;;;;43.50;34.75;;;;;18.81;61.48;102350.66;5098899;27;45415;-76
2022/04/29 09:41:52;;;;;;;;;40.75;33.50;;;;;19.07;61.29;102352.44;5098523;27;45445;-76
2022/04/29 09:44:35;;;;;;;;;46.50;34.25;;;;;19.05;60.70;102347.16;5097963;27;45398;-76
2022/04/29 09:47:11;;;;;;;;;44.00;36.75;;;;;19.20;59.37;102345.88;5096650;27;45303;-76
2022/04/29 09:49:37;;;;;;;;;38.50;34.75;;;;;19.23;59.13;102348.63;5098231;27;45488;-76
2022/04/29 09:52:03;;;;;;;;;34.25;32.25;;;;;19.35;59.00;102356.91;5096219;27;45422;-75
2022/04/29 09:54:39;;;;;;;;;37.75;32.75;;;;;19.27;58.29;102308.50;5076711;27;45745;-76
2022/04/29 09:57:17;;;;;;;;;41.75;36.00;;;;;19.60;58.73;102349.81;5073395;27;45618;-74
2022/04/29 09:59:51;;;;;;;;;41.25;34.50;;;;;19.60;59.07;102341.91;5074891;27;45422;-78
2022/04/29 10:02:27;;;;;;;;;39.00;33.25;;;;;19.70;57.61;102341.41;5077494;27;47794;-77
2022/04/29 10:04:54;;;;;;;;;40.50;34.25;;;;;19.68;57.37;102336.91;5077099;27;45964;-77
2022/04/29 10:07:22;;;;;;;;;42.00;35.00;;;;;19.63;58.04;102344.66;5076829;27;45508;-77
2022/04/29 10:09:54;;;;;;;;;44.25;33.75;;;;;19.64;57.96;102347.34;5080569;27;45354;-77
2022/04/29 10:12:27;;;;;;;;;39.00;33.50;;;;;19.70;57.95;102346.66;5079103;28;46215;-75
2022/04/29 10:14:57;;;;;;;;;43.75;35.00;;;;;19.63;57.11;102339.41;5086401;27;45449;-77
2022/04/29 10:23:09;;;;;;;;;35.50;32.50;;;;;19.63;57.55;102328.91;5077084;28;45230;-77
2022/04/29 10:25:40;;;;;;;;;44.00;34.50;;;;;19.77;57.16;102351.25;5076067;28;45510;-78
2022/04/29 10:28:07;;;;;;;;;38.50;32.75;;;;;19.67;55.99;102335.13;5076533;27;45529;-81
2022/04/29 10:30:37;;;;;;;;;37.00;33.25;;;;;19.82;56.99;102348.78;5074950;27;45495;-81
2022/04/29 10:33:22;;;;;;;;;34.00;29.25;;;;;19.88;55.90;102335.84;5075275;27;45438;-81
2022/04/29 10:35:53;;;;;;;;;42.00;34.75;;;;;19.89;56.12;102323.59;5069317;27;45842;-81
2022/04/29 10:38:32;;;;;;;;;37.50;34.50;;;;;19.95;54.50;102332.56;5087589;27;45326;-75
2022/04/29 10:41:06;;;;;;;;;47.50;34.50;;;;;19.90;53.68;102341.16;5104165;27;45322;-76
2022/04/29 10:43:45;;;;;;;;;38.25;32.75;;;;;19.89;54.23;102339.38;5097439;27;45430;-82
2022/04/29 10:46:10;;;;;;;;;37.50;34.00;;;;;19.90;53.84;102339.41;5101574;27;45328;-80
2022/04/29 10:48:38;;;;;;;;;47.75;35.75;;;;;19.84;53.84;102338.28;5085578;27;45725;-77
2022/04/29 10:51:21;;;;;;;;;35.25;30.50;;;;;19.84;53.44;102343.53;5070786;27;45529;-76
2022/04/29 10:53:50;;;;;;;;;44.50;33.50;;;;;19.82;53.22;102325.13;5071153;27;45921;-77
2022/04/29 10:56:37;;;;;;;;;41.50;31.00;;;;;19.82;53.39;102324.19;5072885;27;46118;-83
2022/04/29 10:59:14;;;;;;;;;38.75;31.00;;;;;19.87;52.77;102331.41;5092872;27;45834;-87
2022/04/29 11:01:59;;;;;;;;;32.75;28.75;;;;;19.75;51.81;102313.50;5091279;27;45582;-88
2022/04/29 11:04:24;;;;;;;;;37.75;31.50;;;;;19.70;51.10;102330.91;5082353;27;46061;-80
2022/04/29 11:06:51;;;;;;;;;28.00;25.00;;;;;19.49;51.17;102312.69;5077886;27;45449;-83
2022/04/29 11:09:26;;;;;;;;;34.25;30.00;;;;;19.57;50.32;102333.97;5075086;27;45571;-79
2022/04/29 11:11:53;;;;;;;;;34.00;30.50;;;;;19.54;51.31;102334.78;5080177;27;45652;-85
2022/04/29 11:14:19;;;;;;;;;36.50;31.50;;;;;19.12;51.17;102248.47;5077852;27;46149;-83
2022/04/29 11:16:52;;;;;;;;;32.25;27.50;;;;;19.63;51.58;102336.78;5077334;27;45484;-85
2022/04/29 11:19:28;;;;;;;;;31.25;28.00;;;;;19.60;51.44;102319.19;5074622;27;45593;-85
2022/04/29 11:24:45;;;;;;;;;38.25;32.25;;;;;19.59;50.62;102283.25;5083703;27;45841;-85
2022/04/29 11:27:11;;;;;;;;;32.25;28.00;;;;;19.62;50.77;102279.81;5088879;27;46350;-90
2022/04/29 11:29:47;;;;;;;;;34.50;30.75;;;;;19.90;50.29;102325.38;5086766;27;45808;-84
2022/04/29 11:32:13;;;;;;;;;32.75;26.75;;;;;20.01;49.79;102325.69;5079269;27;45562;-82
2022/04/29 11:34:57;;;;;;;;;29.00;28.25;;;;;20.05;49.52;102325.84;5078328;28;45728;-79
2022/04/29 11:37:24;;;;;;;;;31.50;29.25;;;;;20.01;49.82;102323.06;5079414;28;45507;-82
2022/04/29 11:39:52;;;;;;;;;35.50;29.75;;;;;19.93;50.41;102299.16;5067778;27;45497;-81
2022/04/29 11:42:19;;;;;;;;;32.75;29.25;;;;;20.01;49.71;102308.22;5086578;27;45430;-83
2022/04/29 11:44:49;;;;;;;;;29.00;26.50;;;;;19.90;51.04;102280.72;5087264;27;45579;-79